createdAt,value
2018-07-03T00:02:26.159Z,100959.00
2018-07-03T00:05:00.308Z,100952.98
2018-07-03T00:07:34.973Z,100954.41
2018-07-03T00:10:12.669Z,100958.28
2018-07-03T00:12:47.559Z,100961.38
2018-07-03T00:15:22.635Z,100959.44
2018-07-03T00:17:57.587Z,100957.15
2018-07-03T00:20:32.994Z,100951.33
2018-07-03T00:23:08.408Z,100950.33
2018-07-03T00:25:42.625Z,100955.37
2018-07-03T00:28:13.910Z,100964.13
2018-07-03T00:30:47.665Z,100960.73
2018-07-03T00:33:19.250Z,100966.50
2018-07-03T00:35:50.540Z,100967.35
2018-07-03T00:38:21.867Z,100966.50
2018-07-03T00:40:57.040Z,100965.23
2018-07-03T00:43:32.577Z,100966.56
2018-07-03T00:46:07.480Z,100963.41
2018-07-03T00:48:42.965Z,100957.94
2018-07-03T00:51:17.117Z,100966.44
2018-07-03T00:53:52.651Z,100967.69
2018-07-03T00:56:23.866Z,100960.50
2018-07-03T00:58:56.698Z,100952.83
2018-07-03T01:01:32.524Z,100953.86
2018-07-03T01:04:08.736Z,100950.16
2018-07-03T01:06:43.490Z,100949.42
2018-07-03T01:09:18.412Z,100948.02
2018-07-03T01:11:54.607Z,100950.32
2018-07-03T01:14:30.353Z,100956.92
2018-07-03T01:17:04.373Z,100950.62
2018-07-03T01:19:38.427Z,100951.47
2018-07-03T01:22:14.017Z,100946.48
2018-07-03T01:24:49.742Z,100940.11
2018-07-03T01:27:25.099Z,100953.06
2018-07-03T01:30:01.052Z,100954.12
2018-07-03T01:32:36.968Z,100954.17
2018-07-03T01:35:12.290Z,100951.53
2018-07-03T01:37:47.468Z,100950.70
2018-07-03T01:40:22.777Z,100953.11
2018-07-03T01:42:59.299Z,100951.52
2018-07-03T01:45:31.409Z,100948.80
2018-07-03T01:48:04.236Z,100947.01
2018-07-03T01:50:35.777Z,100950.38
2018-07-03T01:53:10.463Z,100949.06
2018-07-03T01:55:46.284Z,100954.22
2018-07-03T01:58:21.766Z,100956.30
2018-07-03T02:00:56.454Z,100950.84
2018-07-03T02:03:31.432Z,100950.20
2018-07-03T02:06:04.214Z,100946.75
2018-07-03T02:08:39.809Z,100940.70
2018-07-03T02:11:14.722Z,100939.84
2018-07-03T02:13:50.305Z,100940.67
2018-07-03T02:16:25.814Z,100933.22
2018-07-03T02:19:01.192Z,100933.48
2018-07-03T02:21:37.379Z,100940.46
2018-07-03T02:24:13.102Z,100927.20
2018-07-03T02:26:47.300Z,100933.37
2018-07-03T02:29:22.084Z,100936.80
2018-07-03T02:31:53.409Z,100933.52
2018-07-03T02:34:27.414Z,100922.38
2018-07-03T02:37:03.130Z,100924.16
2018-07-03T02:39:38.744Z,100921.98
2018-07-03T02:42:10.772Z,100925.08
2018-07-03T02:44:42.006Z,100921.91
2018-07-03T02:47:16.404Z,100924.80
2018-07-03T02:49:51.623Z,100927.91
2018-07-03T02:52:22.691Z,100924.80
2018-07-03T02:54:57.008Z,100930.45
2018-07-03T02:57:33.205Z,100917.04
2018-07-03T03:00:10.054Z,100925.98
2018-07-03T03:02:44.468Z,100930.34
2018-07-03T03:05:18.216Z,100931.09
2018-07-03T03:07:49.425Z,100930.94
2018-07-03T03:10:20.709Z,100919.92
2018-07-03T03:12:52.853Z,100924.34
2018-07-03T03:15:24.324Z,100929.47
2018-07-03T03:17:57.680Z,100934.89
2018-07-03T03:20:30.889Z,100927.28
2018-07-03T03:23:05.890Z,100932.94
2018-07-03T03:25:40.595Z,100932.72
2018-07-03T03:28:15.326Z,100928.41
2018-07-03T03:30:49.713Z,100934.44
2018-07-03T03:33:23.847Z,100932.95
2018-07-03T03:35:58.809Z,100931.25
2018-07-03T03:38:32.478Z,100938.78
2018-07-03T03:41:05.315Z,100930.02
2018-07-03T03:43:41.088Z,100926.36
2018-07-03T03:46:16.363Z,100939.53
2018-07-03T03:48:52.563Z,100937.75
2018-07-03T03:51:27.934Z,100942.55
2018-07-03T03:54:03.208Z,100941.89
2018-07-03T03:56:38.855Z,100933.14
2018-07-03T03:59:15.337Z,100930.23
2018-07-03T04:01:49.895Z,100932.84
2018-07-03T04:04:22.042Z,100932.48
2018-07-03T04:06:53.290Z,100944.81
2018-07-03T04:09:26.389Z,100933.81
2018-07-03T04:12:01.514Z,100938.94
2018-07-03T04:14:36.557Z,100943.67
2018-07-03T04:17:11.928Z,100943.94
2018-07-03T04:19:45.030Z,100941.14
2018-07-03T04:22:20.713Z,100940.64
2018-07-03T04:24:57.209Z,100931.70
2018-07-03T04:27:30.879Z,100942.80
2018-07-03T04:30:05.763Z,100932.88
2018-07-03T04:32:41.798Z,100943.15
2018-07-03T04:35:18.236Z,100944.55
2018-07-03T04:37:52.634Z,100945.28
2018-07-03T04:40:26.250Z,100943.77
2018-07-03T04:42:57.608Z,100941.72
2018-07-03T04:45:29.624Z,100950.17
2018-07-03T04:48:05.708Z,100950.88
2018-07-03T04:50:42.019Z,100948.61
2018-07-03T04:53:17.865Z,100953.77
2018-07-03T04:55:53.940Z,100950.51
2018-07-03T04:58:28.438Z,100961.75
2018-07-03T05:01:03.402Z,100955.63
2018-07-03T05:03:37.885Z,100963.61
2018-07-03T05:06:13.246Z,100968.14
2018-07-03T05:08:47.115Z,100965.06
2018-07-03T05:11:21.817Z,100972.90
2018-07-03T05:13:53.318Z,100969.30
2018-07-03T05:16:29.166Z,100970.06
2018-07-03T05:19:04.489Z,100968.74
2018-07-03T05:21:41.014Z,100968.27
2018-07-03T05:24:17.076Z,100974.44
2018-07-03T05:26:52.780Z,100969.34
2018-07-03T05:29:27.324Z,100965.53
2018-07-03T05:32:00.651Z,100970.53
2018-07-03T05:34:36.236Z,100964.72
2018-07-03T05:37:08.928Z,100968.63
2018-07-03T05:39:40.354Z,100972.44
2018-07-03T05:42:16.007Z,100964.25
2018-07-03T05:44:47.492Z,100976.25
2018-07-03T05:47:20.906Z,100970.44
2018-07-03T05:49:57.338Z,100975.98
2018-07-03T05:52:31.244Z,100975.11
2018-07-03T05:55:06.257Z,100968.09
2018-07-03T05:57:42.278Z,100976.41
2018-07-03T06:00:16.526Z,100978.75
2018-07-03T06:02:49.766Z,100977.13
2018-07-03T06:05:22.476Z,100975.78
2018-07-03T06:07:56.888Z,100973.14
2018-07-03T06:10:28.363Z,100980.14
2018-07-03T06:13:02.974Z,100979.03
2018-07-03T06:15:38.248Z,100973.67
2018-07-03T06:18:14.776Z,100972.77
2018-07-03T06:20:49.750Z,100971.82
2018-07-03T06:23:25.276Z,100966.39
2018-07-03T06:26:00.170Z,100970.36
2018-07-03T06:28:34.860Z,100965.55
2018-07-03T06:31:08.527Z,100973.28
2018-07-03T06:33:43.368Z,100963.38
2018-07-03T06:39:22.337Z,100965.42
2018-07-03T06:41:53.684Z,100964.08
2018-07-03T06:44:25.612Z,100970.09
2018-07-03T06:47:00.581Z,100967.59
2018-07-03T06:49:34.641Z,100964.66
2018-07-03T06:52:10.297Z,100968.92
2018-07-03T06:54:45.109Z,100966.63
2018-07-03T06:57:20.194Z,100970.77
2018-07-03T06:59:52.477Z,100966.41
2018-07-03T07:02:23.781Z,100968.48
2018-07-03T07:04:56.999Z,100964.16
2018-07-03T07:07:32.241Z,100957.05
2018-07-03T07:10:07.660Z,100954.83
2018-07-03T07:12:42.884Z,100955.06
2018-07-03T07:15:18.037Z,100948.58
2018-07-03T07:17:53.265Z,100943.92
2018-07-03T07:20:27.250Z,100943.27
2018-07-03T07:23:01.918Z,100942.23
2018-07-03T07:25:33.669Z,100943.05
2018-07-03T07:28:08.854Z,100938.15
2018-07-03T07:30:40.733Z,100942.00
2018-07-03T07:33:13.517Z,100932.19
2018-07-03T07:35:45.444Z,100931.22
2018-07-03T07:38:19.730Z,100935.78
2018-07-03T07:40:54.236Z,100932.48
2018-07-03T07:43:29.650Z,100928.77
2018-07-03T07:46:04.238Z,100931.78
2018-07-03T07:48:40.679Z,100934.47
2018-07-03T07:51:15.419Z,100936.47
2018-07-03T07:53:50.335Z,100933.95
2018-07-03T07:56:25.174Z,100938.45
2018-07-03T07:58:58.453Z,100928.13
2018-07-03T08:01:33.717Z,100934.31
2018-07-03T08:04:06.726Z,100928.48
2018-07-03T08:06:38.009Z,100926.39
2018-07-03T08:09:13.319Z,100918.35
2018-07-03T08:11:48.264Z,100926.70
2018-07-03T08:14:23.242Z,100918.31
2018-07-03T08:16:58.669Z,100921.42
2018-07-03T08:19:33.260Z,100925.80
2018-07-03T08:22:09.089Z,100917.31
2018-07-03T08:24:43.260Z,100919.88
2018-07-03T08:27:15.591Z,100918.20
2018-07-03T08:29:47.096Z,100922.88
2018-07-03T08:32:22.769Z,100921.91
2018-07-03T08:34:57.488Z,100919.28
2018-07-03T08:37:33.707Z,100919.26
2018-07-03T08:40:08.210Z,100919.03
2018-07-03T08:42:47.581Z,100910.84
2018-07-03T08:46:02.227Z,100912.92
2018-07-03T08:48:57.368Z,100920.19
2018-07-03T08:51:46.078Z,100919.28
2018-07-03T08:54:26.931Z,100913.49
2018-07-03T08:57:10.628Z,100913.45
2018-07-03T09:00:40.569Z,100914.65
2018-07-03T09:03:22.726Z,100906.74
2018-07-03T09:06:13.355Z,100907.27
2018-07-03T09:09:02.398Z,100904.86
2018-07-03T09:11:43.550Z,100905.23
2018-07-03T09:14:22.588Z,100908.39
2018-07-03T09:17:11.944Z,100901.70
2018-07-03T09:19:52.502Z,100895.37
2018-07-03T09:22:52.909Z,100900.03
2018-07-03T09:25:34.879Z,100891.93
2018-07-03T09:28:19.655Z,100888.38
2018-07-03T09:31:06.436Z,100886.69
2018-07-03T09:33:52.328Z,100890.84
2018-07-03T09:43:01.242Z,100882.14
2018-07-03T09:45:37.797Z,100880.50
2018-07-03T09:48:09.561Z,100876.20
2018-07-03T09:50:45.905Z,100875.02
2018-07-03T09:53:22.781Z,100861.67
2018-07-03T09:56:07.395Z,100871.98
2018-07-03T09:58:43.316Z,100876.16
2018-07-03T10:01:20.510Z,100865.43
2018-07-03T10:03:51.974Z,100874.98
2018-07-03T10:06:26.720Z,100881.91
2018-07-03T10:08:58.920Z,100877.14
2018-07-03T10:11:35.429Z,100880.81
2018-07-03T10:14:11.146Z,100890.81
2018-07-03T10:16:44.800Z,100890.80
2018-07-03T10:19:20.453Z,100884.24
2018-07-03T10:21:55.059Z,100881.97
2018-07-03T10:24:30.894Z,100876.55
2018-07-03T10:27:05.096Z,100876.48
2018-07-03T10:29:40.299Z,100871.88
2018-07-03T10:32:11.870Z,100874.20
2018-07-03T10:34:47.667Z,100874.75
2018-07-03T10:37:19.098Z,100864.95
2018-07-03T10:39:51.281Z,100871.78
2018-07-03T10:42:31.805Z,100866.80
2018-07-03T10:45:03.402Z,100858.22
2018-07-03T10:47:34.727Z,100858.80
2018-07-03T10:50:06.332Z,100866.31
2018-07-03T10:52:37.107Z,100858.73
2018-07-03T10:55:08.032Z,100858.59
2018-07-03T10:57:39.107Z,100864.41
2018-07-03T11:00:10.018Z,100862.80
2018-07-03T11:02:40.821Z,100856.39
2018-07-03T11:05:11.929Z,100853.43
2018-07-03T11:07:42.951Z,100857.55
2018-07-03T11:10:14.021Z,100857.73
2018-07-03T11:12:45.276Z,100847.70
2018-07-03T11:15:16.085Z,100852.37
2018-07-03T11:17:47.558Z,100852.44
2018-07-03T11:20:18.799Z,100851.07
2018-07-03T11:22:49.677Z,100841.91
2018-07-03T11:25:20.666Z,100840.98
2018-07-03T11:27:51.869Z,100842.95
2018-07-03T11:30:22.965Z,100836.83
2018-07-03T11:32:54.075Z,100840.61
2018-07-03T11:35:25.242Z,100834.67
2018-07-03T11:37:56.423Z,100832.03
2018-07-03T11:40:27.505Z,100830.97
2018-07-03T11:42:58.633Z,100836.05
2018-07-03T11:45:29.888Z,100839.27
2018-07-03T11:48:00.983Z,100828.95
2018-07-03T11:50:32.425Z,100826.84
2018-07-03T11:53:03.528Z,100828.09
2018-07-03T11:55:34.601Z,100814.73
2018-07-03T11:58:05.722Z,100819.14
2018-07-03T12:00:36.739Z,100820.15
2018-07-03T12:03:07.596Z,100812.65
2018-07-03T12:05:38.431Z,100808.11
2018-07-03T12:08:09.512Z,100808.03
2018-07-03T12:10:40.597Z,100812.41
2018-07-03T12:13:11.705Z,100812.03
2018-07-03T12:15:42.813Z,100802.67
2018-07-03T12:18:19.367Z,100804.46
2018-07-03T12:20:50.948Z,100811.78
2018-07-03T12:23:22.034Z,100805.08
2018-07-03T12:25:53.094Z,100802.22
2018-07-03T12:28:24.315Z,100798.36
2018-07-03T12:30:55.124Z,100802.38
2018-07-03T12:33:25.969Z,100797.59
2018-07-03T12:35:56.734Z,100794.90
2018-07-03T12:38:27.504Z,100792.20
2018-07-03T12:40:58.617Z,100799.66
2018-07-03T12:43:29.677Z,100793.09
2018-07-03T12:46:00.818Z,100788.42
2018-07-03T12:48:31.935Z,100791.16
2018-07-03T12:51:03.979Z,100788.29
2018-07-03T12:53:34.755Z,100785.00
2018-07-03T12:56:05.912Z,100791.70
2018-07-03T12:58:37.079Z,100785.52
2018-07-03T13:01:08.677Z,100779.94
2018-07-03T13:03:40.197Z,100786.69
2018-07-03T13:06:11.367Z,100787.57
2018-07-03T13:08:42.590Z,100785.44
2018-07-03T13:11:14.353Z,100784.13
2018-07-03T13:13:45.717Z,100784.98
2018-07-03T13:16:16.906Z,100774.25
2018-07-03T13:18:50.994Z,100766.92
2018-07-03T13:21:22.845Z,100764.65
2018-07-03T13:23:53.947Z,100762.66
2018-07-03T13:26:25.122Z,100762.89
2018-07-03T13:28:56.226Z,100766.36
2018-07-03T13:31:27.042Z,100761.22
2018-07-03T13:33:58.193Z,100764.16
2018-07-03T13:36:29.390Z,100758.06
2018-07-03T13:39:00.588Z,100752.05
2018-07-03T13:41:31.442Z,100751.01
2018-07-03T13:44:02.491Z,100748.20
2018-07-03T13:46:33.799Z,100742.36
2018-07-03T13:49:05.156Z,100752.91
2018-07-03T13:51:36.292Z,100755.97
2018-07-03T13:54:07.411Z,100756.17
2018-07-03T13:56:38.576Z,100744.23
2018-07-03T13:59:09.924Z,100746.27
2018-07-03T14:01:41.189Z,100746.91
2018-07-03T14:04:12.401Z,100741.98
2018-07-03T14:06:43.910Z,100740.81
2018-07-03T14:09:14.915Z,100737.31
2018-07-03T14:11:46.116Z,100735.64
2018-07-03T14:14:17.197Z,100735.13
2018-07-03T14:16:48.443Z,100729.02
2018-07-03T14:19:19.457Z,100734.20
2018-07-03T14:21:50.499Z,100729.48
2018-07-03T14:24:22.113Z,100735.39
2018-07-03T14:26:53.457Z,100728.94
2018-07-03T14:29:24.579Z,100728.11
2018-07-03T14:31:55.611Z,100727.31
2018-07-03T14:34:26.636Z,100733.95
2018-07-03T14:36:57.723Z,100721.66
2018-07-03T14:39:28.974Z,100719.39
2018-07-03T14:42:00.177Z,100716.28
2018-07-03T14:44:31.199Z,100714.09
2018-07-03T14:47:07.922Z,100710.30
2018-07-03T14:49:40.637Z,100715.83
2018-07-03T14:52:11.729Z,100717.87
2018-07-03T14:57:46.565Z,100713.84
2018-07-03T15:00:18.063Z,100704.08
2018-07-03T15:02:48.900Z,100708.95
2018-07-03T15:05:20.110Z,100706.25
2018-07-03T15:07:51.203Z,100703.58
2018-07-03T15:10:22.607Z,100702.36
2018-07-03T15:12:53.801Z,100695.88
2018-07-03T15:15:25.177Z,100700.05
2018-07-03T15:17:56.074Z,100690.48
2018-07-03T15:20:26.943Z,100694.02
2018-07-03T15:22:58.014Z,100689.86
2018-07-03T15:25:28.880Z,100689.52
2018-07-03T15:27:59.967Z,100682.33
2018-07-03T15:30:31.371Z,100676.90
2018-07-03T15:33:02.127Z,100681.78
2018-07-03T15:35:32.882Z,100672.23
2018-07-03T15:38:03.926Z,100680.45
2018-07-03T15:40:35.035Z,100683.52
2018-07-03T15:43:06.231Z,100674.94
2018-07-03T15:45:37.058Z,100669.17
2018-07-03T15:48:07.896Z,100668.95
2018-07-03T15:50:49.908Z,100663.11
2018-07-03T15:53:21.901Z,100664.66
2018-07-03T15:55:54.333Z,100657.87
2018-07-03T15:58:27.631Z,100661.58
2018-07-03T16:00:58.796Z,100653.75
2018-07-03T16:07:09.853Z,100657.92
2018-07-03T16:09:40.695Z,100653.45
2018-07-03T16:12:11.714Z,100653.77
2018-07-03T16:14:43.093Z,100652.05
2018-07-03T16:17:14.258Z,100645.21
2018-07-03T16:19:50.566Z,100640.56
2018-07-03T16:22:21.338Z,100644.84
2018-07-03T16:24:52.122Z,100641.44
2018-07-03T16:27:23.342Z,100637.59
2018-07-03T16:29:54.405Z,100643.95
2018-07-03T16:32:25.429Z,100645.21
2018-07-03T16:34:56.816Z,100637.59
2018-07-03T16:37:27.586Z,100635.69
2018-07-03T16:39:58.606Z,100634.08
2018-07-03T16:42:34.032Z,100634.97
2018-07-03T16:45:04.849Z,100637.16
2018-07-03T16:47:35.874Z,100629.97
2018-07-03T16:50:07.293Z,100641.08
2018-07-03T16:52:38.379Z,100633.75
2018-07-03T16:55:10.861Z,100632.40
2018-07-03T16:57:41.909Z,100636.87
2018-07-03T17:00:16.828Z,100632.48
2018-07-03T17:02:47.448Z,100630.74
2018-07-03T17:05:18.499Z,100635.02
2018-07-03T17:07:49.545Z,100629.52
2018-07-03T17:10:20.274Z,100626.30
2018-07-03T17:12:50.981Z,100630.67
2018-07-03T17:15:22.092Z,100634.27
2018-07-03T17:17:53.105Z,100630.49
2018-07-03T17:20:24.149Z,100635.16
2018-07-03T17:22:55.576Z,100631.05
2018-07-03T17:25:26.609Z,100626.46
2018-07-03T17:27:59.776Z,100632.22
2018-07-03T17:30:31.000Z,100633.62
2018-07-03T17:33:02.126Z,100632.27
2018-07-03T17:35:33.137Z,100633.63
2018-07-03T17:38:04.247Z,100633.57
2018-07-03T17:40:52.136Z,100632.23
2018-07-03T17:44:12.382Z,100628.48
2018-07-03T17:46:43.180Z,100623.19
2018-07-03T17:49:14.316Z,100622.34
2018-07-03T17:51:45.819Z,100615.95
2018-07-03T17:54:16.893Z,100620.62
2018-07-03T17:56:47.854Z,100623.94
2018-07-03T17:59:18.659Z,100614.15
2018-07-03T18:01:51.092Z,100612.93
2018-07-03T18:04:22.318Z,100617.47
2018-07-03T18:06:53.630Z,100615.32
2018-07-03T18:09:25.076Z,100612.04
2018-07-03T18:12:01.094Z,100609.86
2018-07-03T18:14:32.177Z,100609.48
2018-07-03T18:17:05.906Z,100609.73
2018-07-03T18:19:45.944Z,100611.58
2018-07-03T18:22:21.014Z,100594.47
2018-07-03T18:24:52.710Z,100600.47
2018-07-03T18:27:23.955Z,100600.03
2018-07-03T18:29:56.433Z,100607.05
2018-07-03T18:32:31.920Z,100607.28
2018-07-03T18:35:04.556Z,100607.28
2018-07-03T18:37:39.086Z,100606.14
2018-07-03T18:40:14.555Z,100613.63
2018-07-03T18:42:49.237Z,100606.78
2018-07-03T18:45:22.169Z,100610.81
2018-07-03T18:47:57.449Z,100614.01
2018-07-03T18:50:28.873Z,100610.88
2018-07-03T18:53:00.430Z,100611.69
2018-07-03T18:55:31.708Z,100614.58
2018-07-03T18:58:02.481Z,100620.70
2018-07-03T19:00:33.543Z,100613.87
2018-07-03T19:03:05.244Z,100623.96
2018-07-03T19:05:36.358Z,100623.52
2018-07-03T19:08:08.082Z,100621.60
2018-07-03T19:10:39.432Z,100625.33
2018-07-03T19:13:10.648Z,100628.41
2018-07-03T19:15:41.750Z,100635.50
2018-07-03T19:18:12.938Z,100635.22
2018-07-03T19:20:44.101Z,100639.81
2018-07-03T19:23:15.198Z,100647.59
2018-07-03T19:25:46.398Z,100653.05
2018-07-03T19:28:17.573Z,100656.64
2018-07-03T19:30:48.611Z,100653.81
2018-07-03T19:33:20.074Z,100658.70
2018-07-03T19:35:51.194Z,100659.76
2018-07-03T19:38:22.262Z,100649.64
2018-07-03T19:40:53.271Z,100651.19
2018-07-03T19:43:28.404Z,100643.20
2018-07-03T19:46:00.198Z,100658.97
2018-07-03T19:48:31.621Z,100662.34
2018-07-03T19:51:02.747Z,100658.04
2018-07-03T19:53:34.296Z,100666.09
2018-07-03T19:56:05.403Z,100661.77
2018-07-03T19:58:36.317Z,100671.64
2018-07-03T20:01:07.365Z,100667.72
2018-07-03T20:03:38.492Z,100669.09
2018-07-03T20:06:10.038Z,100682.17
2018-07-03T20:08:41.530Z,100665.92
2018-07-03T20:11:12.952Z,100670.14
2018-07-03T20:13:44.044Z,100665.66
2018-07-03T20:16:15.475Z,100678.77
2018-07-03T20:18:46.509Z,100677.46
2018-07-03T20:21:17.884Z,100672.00
2018-07-03T20:23:48.890Z,100676.56
2018-07-03T20:26:20.551Z,100677.41
2018-07-03T20:28:51.746Z,100677.45
2018-07-03T20:31:23.486Z,100676.94
2018-07-03T20:33:54.606Z,100674.05
2018-07-03T20:36:25.762Z,100670.91
2018-07-03T20:38:56.589Z,100676.91
2018-07-03T20:41:27.660Z,100680.28
2018-07-03T20:43:58.526Z,100680.11
2018-07-03T20:46:29.671Z,100689.98
2018-07-03T20:49:01.081Z,100689.28
2018-07-03T20:51:32.085Z,100689.30
2018-07-03T20:54:03.263Z,100690.63
2018-07-03T20:56:34.255Z,100697.95
2018-07-03T20:59:06.017Z,100708.93
2018-07-03T21:01:37.017Z,100704.84
2018-07-03T21:04:08.078Z,100711.15
2018-07-03T21:06:40.696Z,100716.63
2018-07-03T21:09:12.136Z,100713.78
2018-07-03T21:11:43.247Z,100711.70
2018-07-03T21:14:14.301Z,100713.08
2018-07-03T21:16:45.416Z,100719.90
2018-07-03T21:19:20.130Z,100718.84
2018-07-03T21:21:51.174Z,100715.28
2018-07-03T21:24:22.197Z,100715.86
2018-07-03T21:26:53.560Z,100713.67
2018-07-03T21:29:24.634Z,100721.33
2018-07-03T21:31:55.693Z,100716.30
2018-07-03T21:34:26.955Z,100718.13
2018-07-03T21:36:58.068Z,100721.45
2018-07-03T21:39:29.293Z,100727.59
2018-07-03T21:42:00.282Z,100729.72
2018-07-03T21:44:31.302Z,100728.67
2018-07-03T21:47:02.305Z,100734.63
2018-07-03T21:49:33.342Z,100743.92
2018-07-03T21:52:04.392Z,100739.87
2018-07-03T21:54:35.491Z,100731.44
2018-07-03T21:57:06.480Z,100735.72
2018-07-03T21:59:37.572Z,100737.61
2018-07-03T22:02:08.771Z,100736.25
2018-07-03T22:04:39.503Z,100744.20
2018-07-03T22:07:10.298Z,100738.48
2018-07-03T22:09:41.361Z,100743.08
2018-07-03T22:12:12.433Z,100731.95
2018-07-03T22:14:43.495Z,100730.53
2018-07-03T22:17:14.547Z,100731.55
2018-07-03T22:19:45.313Z,100732.33
2018-07-03T22:22:16.341Z,100740.33
2018-07-03T22:24:47.512Z,100734.96
2018-07-03T22:27:18.541Z,100740.33
2018-07-03T22:29:49.817Z,100739.45
2018-07-03T22:32:20.793Z,100737.17
2018-07-03T22:34:51.710Z,100731.73
2018-07-03T22:37:22.755Z,100736.81
2018-07-03T22:39:53.750Z,100739.98
2018-07-03T22:42:24.799Z,100739.98
2018-07-03T22:44:55.902Z,100736.61
2018-07-03T22:47:27.015Z,100743.36
2018-07-03T22:49:58.088Z,100742.48
2018-07-03T22:52:29.139Z,100731.36
2018-07-03T22:55:00.234Z,100745.77
2018-07-03T22:57:31.310Z,100738.11
2018-07-03T23:00:02.377Z,100738.76
2018-07-03T23:02:32.835Z,100740.70
2018-07-03T23:05:03.589Z,100737.31
2018-07-03T23:07:34.294Z,100742.63
2018-07-03T23:10:05.684Z,100737.71
2018-07-03T23:12:36.673Z,100741.95
2018-07-03T23:15:07.703Z,100741.57
2018-07-03T23:17:38.892Z,100740.92
2018-07-03T23:20:10.040Z,100742.95
2018-07-03T23:22:41.054Z,100742.30
2018-07-03T23:25:11.907Z,100736.00
2018-07-03T23:27:42.705Z,100734.94
2018-07-03T23:30:13.449Z,100736.47
2018-07-03T23:32:44.451Z,100730.09
2018-07-03T23:35:15.723Z,100736.27
2018-07-03T23:37:46.907Z,100727.36
2018-07-03T23:40:17.918Z,100732.76
2018-07-03T23:42:49.234Z,100737.73
2018-07-03T23:45:20.337Z,100742.01
2018-07-03T23:48:08.211Z,100744.92
2018-07-03T23:51:01.701Z,100746.88
2018-07-03T23:53:55.478Z,100740.74
2018-07-03T23:56:49.059Z,100725.69
2018-07-03T23:59:42.564Z,100734.09
